createdAt,value
2019-03-15T00:00:42.714Z,195.55
2019-03-15T00:03:20.186Z,202.35
2019-03-15T00:05:56.955Z,199.97
2019-03-15T00:08:33.611Z,197.72
2019-03-15T00:11:10.301Z,203.45
2019-03-15T00:13:47.157Z,202.95
2019-03-15T00:16:23.683Z,200.38
2019-03-15T00:19:00.198Z,192.65
2019-03-15T00:21:36.881Z,198.75
2019-03-15T00:24:15.158Z,202.15
2019-03-15T00:26:52.200Z,197.28
2019-03-15T00:29:29.070Z,194.32
2019-03-15T00:32:05.684Z,201.37
2019-03-15T00:34:42.763Z,191.82
2019-03-15T00:37:20.676Z,199.68
2019-03-15T00:39:58.332Z,204.57
2019-03-15T00:42:34.723Z,202.97
2019-03-15T00:45:12.643Z,203.42
2019-03-15T00:47:49.549Z,208.38
2019-03-15T00:50:26.329Z,206.60
2019-03-15T00:53:03.145Z,212.72
2019-03-15T00:55:40.178Z,216.53
2019-03-15T00:58:16.649Z,218.88
2019-03-15T01:00:53.292Z,214.42
2019-03-15T01:03:29.988Z,215.95
2019-03-15T01:06:06.675Z,213.37
2019-03-15T01:08:43.575Z,204.18
2019-03-15T01:11:20.343Z,206.60
2019-03-15T01:13:57.373Z,199.68
2019-03-15T01:16:34.701Z,188.40
2019-03-15T01:19:11.638Z,185.90
2019-03-15T01:21:48.370Z,188.07
2019-03-15T01:24:25.238Z,180.97
2019-03-15T01:27:02.305Z,175.87
2019-03-15T01:29:38.822Z,171.60
2019-03-15T01:32:15.492Z,160.93
2019-03-15T01:34:53.347Z,161.92
2019-03-15T01:37:30.269Z,150.75
2019-03-15T01:40:07.024Z,150.62
2019-03-15T01:42:43.843Z,145.22
2019-03-15T01:45:20.443Z,141.73
2019-03-15T01:47:58.262Z,139.52
2019-03-15T01:50:36.484Z,137.92
2019-03-15T01:53:13.529Z,138.20
2019-03-15T01:55:50.528Z,132.15
2019-03-15T01:58:27.661Z,132.57
2019-03-15T02:01:04.639Z,133.25
2019-03-15T02:03:41.486Z,126.47
2019-03-15T02:06:18.681Z,126.87
2019-03-15T02:08:55.824Z,123.62
2019-03-15T02:11:32.383Z,116.20
2019-03-15T02:14:09.500Z,113.77
2019-03-15T02:16:45.289Z,112.08
2019-03-15T02:19:22.158Z,107.12
2019-03-15T02:21:58.731Z,102.60
2019-03-15T02:24:36.546Z,91.02
2019-03-15T02:27:13.478Z,92.00
2019-03-15T02:29:50.293Z,87.75
2019-03-15T02:32:27.121Z,87.17
2019-03-15T02:35:04.069Z,84.52
2019-03-15T02:37:42.521Z,86.47
2019-03-15T02:40:19.224Z,81.37
2019-03-15T02:42:56.455Z,82.12
2019-03-15T02:45:35.173Z,81.78
2019-03-15T02:48:13.485Z,80.10
2019-03-15T02:50:50.071Z,80.32
2019-03-15T02:53:27.171Z,78.83
2019-03-15T02:56:04.921Z,77.00
2019-03-15T02:58:41.507Z,77.82
2019-03-15T03:01:18.256Z,76.85
2019-03-15T03:03:54.837Z,77.47
2019-03-15T03:06:31.518Z,75.17
2019-03-15T03:09:09.017Z,74.55
2019-03-15T03:11:45.392Z,75.15
2019-03-15T03:14:22.648Z,74.30
2019-03-15T03:16:59.812Z,74.92
2019-03-15T03:19:36.359Z,73.60
2019-03-15T03:22:13.366Z,72.80
2019-03-15T03:24:50.907Z,71.70
2019-03-15T03:27:27.908Z,72.70
2019-03-15T03:30:05.126Z,74.22
2019-03-15T03:32:44.167Z,74.62
2019-03-15T03:35:20.363Z,71.95
2019-03-15T03:37:57.108Z,72.55
2019-03-15T03:40:36.391Z,72.50
2019-03-15T03:43:14.920Z,72.17
2019-03-15T03:45:51.866Z,71.33
2019-03-15T03:48:31.189Z,73.02
2019-03-15T03:51:08.740Z,74.97
2019-03-15T03:53:45.430Z,72.42
2019-03-15T03:56:22.186Z,74.10
2019-03-15T03:58:58.832Z,71.85
2019-03-15T04:01:35.765Z,73.12
2019-03-15T04:04:12.955Z,73.07
2019-03-15T04:06:49.962Z,71.85
2019-03-15T04:09:26.849Z,71.07
2019-03-15T04:12:03.766Z,71.82
2019-03-15T04:14:41.024Z,70.83
2019-03-15T04:17:17.814Z,70.32
2019-03-15T04:19:55.428Z,72.25
2019-03-15T04:22:31.900Z,72.00
2019-03-15T04:25:09.052Z,72.30
2019-03-15T04:27:46.858Z,69.75
2019-03-15T04:30:24.865Z,73.30
2019-03-15T04:33:03.633Z,71.53
2019-03-15T04:35:40.871Z,70.17
2019-03-15T04:38:18.695Z,71.40
2019-03-15T04:40:55.582Z,70.67
2019-03-15T04:43:32.119Z,70.60
2019-03-15T04:46:08.312Z,69.92
2019-03-15T04:48:45.664Z,71.05
2019-03-15T04:51:22.450Z,70.10
2019-03-15T04:53:59.632Z,71.12
2019-03-15T04:56:36.225Z,72.50
2019-03-15T04:59:13.656Z,71.02
2019-03-15T05:01:50.697Z,70.92
2019-03-15T05:04:27.361Z,70.22
2019-03-15T05:07:06.133Z,71.62
2019-03-15T05:09:42.749Z,70.95
2019-03-15T05:12:20.053Z,70.47
2019-03-15T05:14:56.231Z,69.05
2019-03-15T05:17:33.156Z,66.40
2019-03-15T05:20:10.048Z,65.55
2019-03-15T05:22:46.854Z,66.07
2019-03-15T05:25:23.635Z,65.97
2019-03-15T05:28:00.549Z,67.97
2019-03-15T05:30:37.092Z,64.58
2019-03-15T05:33:14.632Z,69.22
2019-03-15T05:35:51.768Z,67.95
2019-03-15T05:38:28.949Z,71.40
2019-03-15T05:41:05.551Z,62.88
2019-03-15T05:43:41.981Z,63.85
2019-03-15T05:46:18.385Z,65.60
2019-03-15T05:48:55.207Z,62.70
2019-03-15T05:51:31.963Z,62.88
2019-03-15T05:54:09.092Z,61.13
2019-03-15T05:56:45.742Z,62.08
2019-03-15T05:59:22.820Z,62.15
2019-03-15T06:01:59.476Z,63.00
2019-03-15T06:04:36.206Z,62.25
2019-03-15T06:07:12.740Z,61.25
2019-03-15T06:09:50.423Z,61.13
2019-03-15T06:12:27.107Z,62.13
2019-03-15T06:15:06.670Z,61.28
2019-03-15T06:17:43.320Z,59.98
2019-03-15T06:20:19.860Z,62.10
2019-03-15T06:22:56.245Z,63.00
2019-03-15T06:25:32.635Z,59.85
2019-03-15T06:28:09.406Z,61.65
2019-03-15T06:30:46.156Z,62.93
2019-03-15T06:33:22.757Z,60.43
2019-03-15T06:35:59.467Z,61.33
2019-03-15T06:38:36.835Z,61.33
2019-03-15T06:41:14.497Z,62.13
2019-03-15T06:43:51.733Z,63.05
2019-03-15T06:46:28.110Z,60.70
2019-03-15T06:49:04.894Z,62.08
2019-03-15T06:51:44.080Z,63.85
2019-03-15T06:54:20.976Z,62.65
2019-03-15T06:56:57.898Z,61.48
2019-03-15T06:59:34.996Z,62.53
2019-03-15T07:02:11.516Z,62.53
2019-03-15T07:04:48.645Z,62.33
2019-03-15T07:07:25.456Z,62.75
2019-03-15T07:10:02.112Z,60.05
2019-03-15T07:12:40.108Z,60.05
2019-03-15T07:15:18.085Z,61.02
2019-03-15T07:17:55.228Z,61.75
2019-03-15T07:20:32.093Z,64.10
2019-03-15T07:23:08.717Z,61.63
2019-03-15T07:25:45.660Z,62.73
2019-03-15T07:28:22.395Z,61.25
2019-03-15T07:30:59.315Z,61.18
2019-03-15T07:33:38.212Z,62.17
2019-03-15T07:36:14.856Z,63.55
2019-03-15T07:38:51.335Z,61.73
2019-03-15T07:41:29.942Z,62.93
2019-03-15T07:44:06.814Z,59.63
2019-03-15T07:46:43.518Z,57.67
2019-03-15T07:49:20.410Z,58.42
2019-03-15T07:51:56.834Z,59.35
2019-03-15T07:54:45.379Z,58.58
2019-03-15T07:57:22.366Z,55.48
2019-03-15T07:59:59.385Z,57.17
2019-03-15T08:02:36.290Z,54.63
2019-03-15T08:05:13.514Z,56.88
2019-03-15T08:07:50.294Z,54.83
2019-03-15T08:10:27.405Z,56.25
2019-03-15T08:13:03.942Z,56.98
2019-03-15T08:15:40.370Z,58.52
2019-03-15T08:18:17.318Z,57.48
2019-03-15T08:20:54.492Z,55.55
2019-03-15T08:23:31.072Z,55.43
2019-03-15T08:26:07.983Z,51.85
2019-03-15T08:28:44.599Z,54.03
2019-03-15T08:31:23.353Z,53.00
2019-03-15T08:33:59.939Z,53.23
2019-03-15T08:36:36.583Z,50.03
2019-03-15T08:39:13.663Z,50.55
2019-03-15T08:41:50.449Z,52.55
2019-03-15T08:44:26.785Z,50.88
2019-03-15T08:47:03.594Z,49.60
2019-03-15T08:49:39.998Z,49.58
2019-03-15T08:52:16.962Z,49.85
2019-03-15T08:55:04.557Z,50.75
2019-03-15T08:57:32.650Z,49.80
2019-03-15T09:00:09.838Z,49.77
2019-03-15T09:02:47.224Z,49.33
2019-03-15T09:05:23.932Z,49.93
2019-03-15T09:08:02.056Z,51.33
2019-03-15T09:13:11.569Z,48.85
2019-03-15T09:15:50.289Z,49.38
2019-03-15T09:18:29.657Z,48.42
2019-03-15T09:21:07.773Z,49.30
2019-03-15T09:23:47.590Z,50.05
2019-03-15T09:26:25.759Z,51.05
2019-03-15T09:29:04.081Z,50.75
2019-03-15T09:31:47.781Z,51.23
2019-03-15T09:34:22.248Z,50.12
2019-03-15T09:37:00.600Z,50.00
2019-03-15T09:39:38.949Z,50.12
2019-03-15T09:42:17.278Z,51.00
2019-03-15T09:44:55.913Z,50.48
2019-03-15T09:47:34.015Z,52.83
2019-03-15T09:50:22.914Z,51.33
2019-03-15T09:52:52.610Z,52.33
2019-03-15T09:55:33.327Z,52.17
2019-03-15T09:58:10.280Z,51.70
2019-03-15T10:00:49.053Z,52.43
2019-03-15T10:03:27.207Z,53.75
2019-03-15T10:06:15.435Z,53.87
2019-03-15T10:08:45.509Z,52.43
2019-03-15T10:11:24.996Z,52.27
2019-03-15T10:14:03.162Z,53.00
2019-03-15T10:16:41.660Z,52.00
2019-03-15T10:19:23.137Z,52.53
2019-03-15T10:22:01.847Z,51.55
2019-03-15T10:24:39.729Z,52.62
2019-03-15T10:27:18.357Z,51.65
2019-03-15T10:29:56.878Z,49.58
2019-03-15T10:32:35.318Z,49.15
2019-03-15T10:35:14.597Z,50.90
2019-03-15T10:37:53.054Z,49.77
2019-03-15T10:40:31.662Z,49.33
2019-03-15T10:43:10.064Z,49.83
2019-03-15T10:45:48.891Z,49.03
2019-03-15T10:48:28.442Z,47.80
2019-03-15T10:51:07.126Z,47.80
2019-03-15T10:53:45.485Z,48.52
2019-03-15T10:56:23.754Z,48.30
2019-03-15T10:59:02.475Z,48.00
2019-03-15T11:01:41.094Z,47.60
2019-03-15T11:04:19.825Z,47.83
2019-03-15T11:06:58.184Z,48.63
2019-03-15T11:09:36.973Z,47.45
2019-03-15T11:12:15.259Z,49.18
2019-03-15T11:14:54.105Z,48.90
2019-03-15T11:17:32.486Z,48.15
2019-03-15T11:20:11.544Z,45.85
2019-03-15T11:22:50.031Z,48.30
2019-03-15T11:25:28.797Z,48.20
2019-03-15T11:28:07.104Z,47.27
2019-03-15T11:30:45.522Z,45.70
2019-03-15T11:33:24.022Z,46.00
2019-03-15T11:36:03.509Z,46.53
2019-03-15T11:38:42.472Z,46.10
2019-03-15T11:41:21.229Z,46.08
2019-03-15T11:44:16.660Z,46.60
2019-03-15T11:46:55.398Z,45.83
2019-03-15T11:49:33.911Z,45.67
2019-03-15T11:52:12.426Z,47.17
2019-03-15T11:54:50.955Z,47.93
2019-03-15T11:57:29.627Z,47.27
2019-03-15T12:00:07.969Z,49.23
2019-03-15T12:02:46.833Z,49.90
2019-03-15T12:05:25.008Z,50.10
2019-03-15T12:08:03.739Z,49.63
2019-03-15T12:10:42.233Z,48.92
2019-03-15T12:13:20.801Z,48.45
2019-03-15T12:15:59.067Z,48.10
2019-03-15T12:21:17.118Z,49.48
2019-03-15T12:23:55.376Z,48.38
2019-03-15T12:26:40.267Z,48.38
2019-03-15T12:29:13.543Z,50.35
2019-03-15T12:31:52.223Z,47.35
2019-03-15T12:34:30.418Z,48.70
2019-03-15T12:37:09.455Z,49.15
2019-03-15T12:39:48.040Z,50.95
2019-03-15T12:42:25.828Z,50.08
2019-03-15T12:45:04.063Z,51.48
2019-03-15T12:47:42.543Z,52.67
2019-03-15T12:50:22.481Z,55.25
2019-03-15T12:53:01.005Z,49.67
2019-03-15T12:55:39.394Z,51.30
2019-03-15T12:58:17.827Z,50.83
2019-03-15T13:00:56.294Z,51.20
2019-03-15T13:03:34.694Z,52.83
2019-03-15T13:06:12.680Z,53.00
2019-03-15T13:08:51.271Z,49.38
2019-03-15T13:11:31.001Z,50.67
2019-03-15T13:14:09.136Z,50.60
2019-03-15T13:16:47.438Z,52.62
2019-03-15T13:19:26.232Z,52.48
2019-03-15T13:22:04.671Z,52.17
2019-03-15T13:24:43.340Z,51.65
2019-03-15T13:27:21.727Z,53.35
2019-03-15T13:30:00.419Z,55.28
2019-03-15T13:32:38.662Z,54.15
2019-03-15T13:35:17.792Z,59.40
2019-03-15T13:37:56.097Z,54.30
2019-03-15T13:40:34.840Z,61.55
2019-03-15T13:43:14.243Z,62.88
2019-03-15T13:45:52.722Z,59.88
2019-03-15T13:48:30.675Z,60.12
2019-03-15T13:51:09.038Z,59.67
2019-03-15T13:53:47.202Z,57.38
2019-03-15T13:56:25.975Z,56.83
2019-03-15T13:59:03.938Z,55.05
2019-03-15T14:01:42.525Z,56.02
2019-03-15T14:04:21.168Z,54.18
2019-03-15T14:06:59.710Z,55.85
2019-03-15T14:09:37.842Z,55.12
2019-03-15T14:12:16.451Z,54.33
2019-03-15T14:14:55.121Z,53.98
2019-03-15T14:17:33.687Z,54.55
2019-03-15T14:20:13.320Z,55.65
2019-03-15T14:22:51.801Z,53.52
2019-03-15T14:25:30.386Z,51.88
2019-03-15T14:28:08.826Z,52.50
2019-03-15T14:30:47.299Z,53.50
2019-03-15T14:33:25.630Z,50.88
2019-03-15T14:36:04.546Z,51.42
2019-03-15T14:38:43.115Z,52.75
2019-03-15T14:41:22.131Z,53.13
2019-03-15T14:44:00.302Z,53.68
2019-03-15T14:46:38.724Z,52.83
2019-03-15T14:49:17.043Z,55.03
2019-03-15T14:51:55.355Z,52.13
2019-03-15T14:54:33.646Z,54.65
2019-03-15T14:57:12.035Z,53.85
2019-03-15T14:59:50.717Z,53.63
2019-03-15T15:02:29.116Z,51.23
2019-03-15T15:05:07.641Z,54.50
2019-03-15T15:07:46.843Z,52.93
2019-03-15T15:10:25.006Z,54.03
2019-03-15T15:13:03.670Z,56.00
2019-03-15T15:15:43.100Z,56.53
2019-03-15T15:18:21.862Z,54.27
2019-03-15T15:21:00.499Z,54.00
2019-03-15T15:23:39.755Z,54.77
2019-03-15T15:26:17.643Z,52.70
2019-03-15T15:28:56.902Z,56.42
2019-03-15T15:31:35.423Z,57.10
2019-03-15T15:34:14.266Z,58.00
2019-03-15T15:36:52.526Z,55.50
2019-03-15T15:39:30.856Z,56.10
2019-03-15T15:42:08.895Z,58.20
2019-03-15T15:44:47.565Z,58.98
2019-03-15T15:47:25.712Z,56.83
2019-03-15T15:50:04.128Z,56.77
2019-03-15T15:52:42.632Z,59.67
2019-03-15T15:55:21.543Z,58.65
2019-03-15T15:57:59.860Z,60.05
2019-03-15T16:00:38.382Z,60.83
2019-03-15T16:03:16.592Z,59.65
2019-03-15T16:05:55.236Z,61.05
2019-03-15T16:08:33.792Z,62.30
2019-03-15T16:11:12.452Z,62.85
2019-03-15T16:13:50.922Z,61.53
2019-03-15T16:16:29.545Z,62.55
2019-03-15T16:19:08.290Z,59.77
2019-03-15T16:21:46.845Z,60.50
2019-03-15T16:24:25.562Z,62.35
2019-03-15T16:27:03.947Z,61.77
2019-03-15T16:29:42.888Z,62.08
2019-03-15T16:32:21.463Z,59.83
2019-03-15T16:35:00.617Z,58.90
2019-03-15T16:37:38.773Z,59.23
2019-03-15T16:40:17.549Z,61.10
2019-03-15T16:42:55.973Z,60.03
2019-03-15T16:45:34.329Z,61.83
2019-03-15T16:48:13.022Z,62.30
2019-03-15T16:50:51.948Z,60.90
2019-03-15T16:53:31.158Z,61.90
2019-03-15T16:56:10.072Z,60.23
2019-03-15T16:58:48.463Z,61.90
2019-03-15T17:01:26.714Z,63.17
2019-03-15T17:04:05.542Z,62.55
2019-03-15T17:06:43.120Z,63.63
2019-03-15T17:09:21.315Z,64.17
2019-03-15T17:11:59.463Z,60.73
2019-03-15T17:14:39.390Z,62.23
2019-03-15T17:17:17.268Z,61.83
2019-03-15T17:19:55.493Z,61.83
2019-03-15T17:22:33.519Z,63.42
2019-03-15T17:25:12.219Z,61.18
2019-03-15T17:27:50.736Z,62.08
2019-03-15T17:30:29.275Z,59.25
2019-03-15T17:33:07.700Z,60.80
2019-03-15T17:35:46.326Z,59.88
2019-03-15T17:38:24.544Z,58.55
2019-03-15T17:41:02.826Z,57.90
2019-03-15T17:43:41.409Z,58.52
2019-03-15T17:46:19.802Z,58.92
2019-03-15T17:48:58.413Z,57.13
2019-03-15T17:51:36.643Z,57.53
2019-03-15T17:54:15.398Z,56.48
2019-03-15T17:56:53.842Z,57.30
2019-03-15T17:59:31.926Z,56.40
2019-03-15T18:02:10.380Z,56.92
2019-03-15T18:04:49.002Z,55.75
2019-03-15T18:07:27.293Z,55.45
2019-03-15T18:10:05.869Z,57.05
2019-03-15T18:12:45.139Z,56.58
2019-03-15T18:15:23.850Z,57.55
2019-03-15T18:18:02.618Z,57.58
2019-03-15T18:20:40.964Z,58.90
2019-03-15T18:23:19.894Z,61.00
2019-03-15T18:25:58.234Z,59.88
2019-03-15T18:28:36.793Z,58.45
2019-03-15T18:31:14.977Z,58.02
2019-03-15T18:33:53.593Z,58.73
2019-03-15T18:36:31.559Z,59.65
2019-03-15T18:39:12.045Z,57.17
2019-03-15T18:41:50.635Z,57.23
2019-03-15T18:44:29.036Z,56.18
2019-03-15T18:47:07.539Z,55.17
2019-03-15T18:49:46.038Z,56.45
2019-03-15T18:52:24.412Z,56.83
2019-03-15T18:55:02.741Z,54.80
2019-03-15T18:57:41.383Z,53.65
2019-03-15T19:00:21.869Z,53.70
2019-03-15T19:03:00.476Z,55.17
2019-03-15T19:05:38.529Z,54.25
2019-03-15T19:08:17.143Z,53.45
2019-03-15T19:10:55.718Z,55.33
2019-03-15T19:13:34.234Z,53.60
2019-03-15T19:16:19.904Z,52.60
2019-03-15T19:18:52.531Z,52.75
2019-03-15T19:21:31.017Z,53.02
2019-03-15T19:24:09.353Z,50.33
2019-03-15T19:26:47.579Z,54.08
2019-03-15T19:29:25.849Z,54.53
2019-03-15T19:32:04.403Z,54.18
2019-03-15T19:34:42.753Z,54.42
2019-03-15T19:37:21.615Z,54.25
2019-03-15T19:39:59.721Z,55.85
2019-03-15T19:42:38.179Z,56.08
2019-03-15T19:45:17.394Z,54.93
2019-03-15T19:47:56.169Z,55.35
2019-03-15T19:50:34.583Z,54.65
2019-03-15T19:53:13.970Z,56.18
2019-03-15T19:55:52.485Z,55.60
2019-03-15T19:58:31.184Z,57.30
2019-03-15T20:01:09.412Z,55.58
2019-03-15T20:03:47.949Z,57.15
2019-03-15T20:06:26.294Z,58.85
2019-03-15T20:09:04.855Z,57.15
2019-03-15T20:11:43.426Z,58.73
2019-03-15T20:14:22.921Z,57.35
2019-03-15T20:17:01.347Z,59.05
2019-03-15T20:19:39.713Z,58.30
2019-03-15T20:22:21.043Z,54.85
2019-03-15T20:24:58.570Z,57.15
2019-03-15T20:27:37.166Z,57.98
2019-03-15T20:30:21.938Z,58.48
2019-03-15T20:32:57.328Z,57.03
2019-03-15T20:35:36.258Z,57.65
2019-03-15T20:38:14.915Z,58.92
2019-03-15T20:40:53.207Z,58.55
2019-03-15T20:43:32.177Z,56.37
2019-03-15T20:46:10.458Z,54.98
2019-03-15T20:48:48.762Z,55.10
2019-03-15T20:51:27.109Z,56.18
2019-03-15T20:54:05.745Z,54.67
2019-03-15T20:56:44.375Z,52.45
2019-03-15T20:59:22.788Z,52.53
2019-03-15T21:02:01.142Z,51.53
2019-03-15T21:04:39.688Z,54.08
2019-03-15T21:07:18.187Z,49.42
2019-03-15T21:09:57.847Z,52.25
2019-03-15T21:12:36.410Z,52.08
2019-03-15T21:15:15.307Z,49.42
2019-03-15T21:17:54.083Z,46.15
2019-03-15T21:20:32.358Z,51.02
2019-03-15T21:23:10.816Z,49.15
2019-03-15T21:25:49.908Z,48.70
2019-03-15T21:28:28.690Z,47.95
2019-03-15T21:31:07.132Z,48.08
2019-03-15T21:33:45.536Z,46.08
2019-03-15T21:36:23.849Z,44.23
2019-03-15T21:39:02.464Z,43.95
2019-03-15T21:41:41.212Z,43.30
2019-03-15T21:44:20.367Z,44.40
2019-03-15T21:46:58.825Z,43.75
2019-03-15T21:49:37.000Z,42.50
2019-03-15T21:52:15.331Z,42.67
2019-03-15T21:54:54.127Z,42.38
2019-03-15T21:57:32.232Z,41.80
2019-03-15T22:00:10.727Z,41.55
2019-03-15T22:02:49.172Z,39.73
2019-03-15T22:05:27.462Z,38.28
2019-03-15T22:08:06.053Z,38.95
2019-03-15T22:10:44.472Z,37.35
2019-03-15T22:13:22.906Z,38.15
2019-03-15T22:16:01.302Z,38.35
2019-03-15T22:18:39.484Z,36.20
2019-03-15T22:21:17.847Z,36.68
2019-03-15T22:23:56.507Z,36.85
2019-03-15T22:26:34.737Z,36.77
2019-03-15T22:29:13.266Z,34.92
2019-03-15T22:31:51.620Z,36.20
2019-03-15T22:34:29.883Z,33.98
2019-03-15T22:37:08.204Z,35.20
2019-03-15T22:39:46.765Z,35.10
2019-03-15T22:42:25.239Z,34.83
2019-03-15T22:45:04.470Z,34.92
2019-03-15T22:47:42.829Z,35.98
2019-03-15T22:50:21.163Z,36.05
2019-03-15T22:52:59.894Z,35.30
2019-03-15T22:55:37.854Z,34.60
2019-03-15T22:58:16.565Z,35.43
2019-03-15T23:00:55.380Z,34.63
2019-03-15T23:03:35.082Z,35.35
2019-03-15T23:06:13.940Z,36.20
2019-03-15T23:08:52.512Z,36.58
2019-03-15T23:11:30.785Z,33.58
2019-03-15T23:14:10.380Z,34.13
2019-03-15T23:16:48.772Z,34.78
2019-03-15T23:19:27.062Z,33.83
2019-03-15T23:22:05.379Z,34.83
2019-03-15T23:24:43.959Z,32.75
2019-03-15T23:27:22.441Z,34.27
2019-03-15T23:30:00.724Z,32.50
2019-03-15T23:32:39.162Z,33.45
2019-03-15T23:35:17.912Z,33.63
2019-03-15T23:37:56.171Z,32.40
2019-03-15T23:40:34.927Z,32.30
2019-03-15T23:43:13.372Z,33.35
2019-03-15T23:45:52.564Z,32.88
2019-03-15T23:48:30.861Z,30.82
2019-03-15T23:51:09.505Z,31.30
2019-03-15T23:53:47.645Z,31.73
2019-03-15T23:56:25.824Z,33.02
2019-03-15T23:59:04.289Z,31.42
